sensor_id;sensor_type;location;lat;lon;timestamp;temperature;humidity
11095;DHT22;5601;44.490;11.400;2023-01-26T00:00:14;3.80;99.90
11095;DHT22;5601;44.490;11.400;2023-01-26T00:02:41;3.80;99.90
11095;DHT22;5601;44.490;11.400;2023-01-26T00:05:08;3.80;99.90
11095;DHT22;5601;44.490;11.400;2023-01-26T00:07:36;3.80;99.90
11095;DHT22;5601;44.490;11.400;2023-01-26T00:10:07;3.80;99.90
11095;DHT22;5601;44.490;11.400;2023-01-26T00:12:34;3.80;99.90
11095;DHT22;5601;44.490;11.400;2023-01-26T00:15:00;3.70;99.90
11095;DHT22;5601;44.490;11.400;2023-01-26T00:17:27;3.80;99.90
11095;DHT22;5601;44.490;11.400;2023-01-26T00:19:55;3.70;99.90
11095;DHT22;5601;44.490;11.400;2023-01-26T00:22:22;3.70;99.90
11095;DHT22;5601;44.490;11.400;2023-01-26T00:24:50;3.70;99.90
11095;DHT22;5601;44.490;11.400;2023-01-26T00:27:17;3.70;99.90
11095;DHT22;5601;44.490;11.400;2023-01-26T00:29:44;3.70;99.90
11095;DHT22;5601;44.490;11.400;2023-01-26T00:32:11;3.70;99.90
11095;DHT22;5601;44.490;11.400;2023-01-26T00:34:37;3.60;99.90
11095;DHT22;5601;44.490;11.400;2023-01-26T00:37:04;3.70;99.90
11095;DHT22;5601;44.490;11.400;2023-01-26T00:39:31;3.60;99.90
11095;DHT22;5601;44.490;11.400;2023-01-26T00:41:59;3.60;99.90
11095;DHT22;5601;44.490;11.400;2023-01-26T00:44:34;3.70;99.90
11095;DHT22;5601;44.490;11.400;2023-01-26T00:47:01;3.70;99.90
11095;DHT22;5601;44.490;11.400;2023-01-26T00:49:28;3.60;99.90
11095;DHT22;5601;44.490;11.400;2023-01-26T00:51:55;3.60;99.90
11095;DHT22;5601;44.490;11.400;2023-01-26T00:54:21;3.70;99.90
11095;DHT22;5601;44.490;11.400;2023-01-26T00:56:48;3.70;99.90
11095;DHT22;5601;44.490;11.400;2023-01-26T00:59:16;3.60;99.90
11095;DHT22;5601;44.490;11.400;2023-01-26T01:01:43;3.60;99.90
11095;DHT22;5601;44.490;11.400;2023-01-26T01:04:10;3.60;99.90
11095;DHT22;5601;44.490;11.400;2023-01-26T01:06:36;3.60;99.90
11095;DHT22;5601;44.490;11.400;2023-01-26T01:09:03;3.60;99.90
11095;DHT22;5601;44.490;11.400;2023-01-26T01:11:31;3.60;99.90
11095;DHT22;5601;44.490;11.400;2023-01-26T01:13:58;3.60;99.90
11095;DHT22;5601;44.490;11.400;2023-01-26T01:16:26;3.60;99.90
11095;DHT22;5601;44.490;11.400;2023-01-26T01:18:53;3.70;99.90
11095;DHT22;5601;44.490;11.400;2023-01-26T01:21:20;3.70;99.90
11095;DHT22;5601;44.490;11.400;2023-01-26T01:23:47;3.80;99.90
11095;DHT22;5601;44.490;11.400;2023-01-26T01:26:14;3.90;99.90
11095;DHT22;5601;44.490;11.400;2023-01-26T01:28:42;3.90;99.90
11095;DHT22;5601;44.490;11.400;2023-01-26T01:31:09;3.90;99.90
11095;DHT22;5601;44.490;11.400;2023-01-26T01:33:38;3.90;99.90
11095;DHT22;5601;44.490;11.400;2023-01-26T01:36:05;3.90;99.90
11095;DHT22;5601;44.490;11.400;2023-01-26T01:38:32;3.90;99.90
11095;DHT22;5601;44.490;11.400;2023-01-26T01:40:59;3.90;99.90
11095;DHT22;5601;44.490;11.400;2023-01-26T01:43:26;3.80;99.90
11095;DHT22;5601;44.490;11.400;2023-01-26T01:45:53;3.70;99.90
11095;DHT22;5601;44.490;11.400;2023-01-26T01:48:22;3.70;99.90
11095;DHT22;5601;44.490;11.400;2023-01-26T01:50:53;3.70;99.90
11095;DHT22;5601;44.490;11.400;2023-01-26T01:53:21;3.70;99.90
11095;DHT22;5601;44.490;11.400;2023-01-26T01:55:50;3.60;99.90
11095;DHT22;5601;44.490;11.400;2023-01-26T01:58:17;3.60;99.90
11095;DHT22;5601;44.490;11.400;2023-01-26T02:00:45;3.50;99.90
11095;DHT22;5601;44.490;11.400;2023-01-26T02:03:11;3.50;99.90
11095;DHT22;5601;44.490;11.400;2023-01-26T02:05:42;3.50;99.90
11095;DHT22;5601;44.490;11.400;2023-01-26T02:08:11;3.50;99.90
11095;DHT22;5601;44.490;11.400;2023-01-26T02:10:38;3.40;99.90
11095;DHT22;5601;44.490;11.400;2023-01-26T02:13:06;3.40;99.90
11095;DHT22;5601;44.490;11.400;2023-01-26T02:15:33;3.40;99.90
11095;DHT22;5601;44.490;11.400;2023-01-26T02:18:01;3.40;99.90
11095;DHT22;5601;44.490;11.400;2023-01-26T02:20:31;3.40;99.90
11095;DHT22;5601;44.490;11.400;2023-01-26T02:23:01;3.30;99.90
11095;DHT22;5601;44.490;11.400;2023-01-26T02:25:34;3.30;99.90
11095;DHT22;5601;44.490;11.400;2023-01-26T02:28:03;3.30;99.90
11095;DHT22;5601;44.490;11.400;2023-01-26T02:30:30;3.20;99.90
11095;DHT22;5601;44.490;11.400;2023-01-26T02:32:57;3.20;99.90
11095;DHT22;5601;44.490;11.400;2023-01-26T02:35:24;3.20;99.90
11095;DHT22;5601;44.490;11.400;2023-01-26T02:37:51;3.20;99.90
11095;DHT22;5601;44.490;11.400;2023-01-26T02:40:20;3.20;99.90
11095;DHT22;5601;44.490;11.400;2023-01-26T02:42:50;3.10;99.90
11095;DHT22;5601;44.490;11.400;2023-01-26T02:45:20;3.10;99.90
11095;DHT22;5601;44.490;11.400;2023-01-26T02:47:47;3.10;99.90
11095;DHT22;5601;44.490;11.400;2023-01-26T02:50:15;3.00;99.90
11095;DHT22;5601;44.490;11.400;2023-01-26T02:52:40;3.00;99.90
11095;DHT22;5601;44.490;11.400;2023-01-26T02:55:08;3.00;99.90
11095;DHT22;5601;44.490;11.400;2023-01-26T02:57:49;2.90;99.90
11095;DHT22;5601;44.490;11.400;2023-01-26T03:00:17;2.90;99.90
11095;DHT22;5601;44.490;11.400;2023-01-26T03:02:46;2.90;99.90
11095;DHT22;5601;44.490;11.400;2023-01-26T03:05:13;2.80;99.90
11095;DHT22;5601;44.490;11.400;2023-01-26T03:07:40;2.80;99.90
11095;DHT22;5601;44.490;11.400;2023-01-26T03:10:07;2.80;99.90
11095;DHT22;5601;44.490;11.400;2023-01-26T03:12:34;2.70;99.90
11095;DHT22;5601;44.490;11.400;2023-01-26T03:15:01;2.70;99.90
11095;DHT22;5601;44.490;11.400;2023-01-26T03:18:01;2.70;99.90
11095;DHT22;5601;44.490;11.400;2023-01-26T03:21:02;2.70;99.90
11095;DHT22;5601;44.490;11.400;2023-01-26T03:23:47;2.60;99.90
11095;DHT22;5601;44.490;11.400;2023-01-26T03:26:31;2.60;99.90
11095;DHT22;5601;44.490;11.400;2023-01-26T03:29:16;2.60;99.90
11095;DHT22;5601;44.490;11.400;2023-01-26T03:31:43;2.60;99.90
11095;DHT22;5601;44.490;11.400;2023-01-26T03:34:11;2.60;99.90
11095;DHT22;5601;44.490;11.400;2023-01-26T03:36:38;2.60;99.90
11095;DHT22;5601;44.490;11.400;2023-01-26T03:39:05;2.60;99.90
11095;DHT22;5601;44.490;11.400;2023-01-26T03:41:32;2.60;99.90
11095;DHT22;5601;44.490;11.400;2023-01-26T03:44:16;2.50;99.90
11095;DHT22;5601;44.490;11.400;2023-01-26T03:47:00;2.50;99.90
11095;DHT22;5601;44.490;11.400;2023-01-26T03:49:46;2.50;99.90
11095;DHT22;5601;44.490;11.400;2023-01-26T03:52:30;2.60;99.90
11095;DHT22;5601;44.490;11.400;2023-01-26T03:55:14;2.60;99.90
11095;DHT22;5601;44.490;11.400;2023-01-26T03:57:58;2.70;99.90
11095;DHT22;5601;44.490;11.400;2023-01-26T04:00:25;2.70;99.90
11095;DHT22;5601;44.490;11.400;2023-01-26T04:02:52;2.80;99.90
11095;DHT22;5601;44.490;11.400;2023-01-26T04:05:37;2.80;99.90
11095;DHT22;5601;44.490;11.400;2023-01-26T04:08:22;2.90;99.90
11095;DHT22;5601;44.490;11.400;2023-01-26T04:10:49;2.90;99.90
11095;DHT22;5601;44.490;11.400;2023-01-26T04:13:16;2.90;99.90
11095;DHT22;5601;44.490;11.400;2023-01-26T04:16:01;2.90;99.90
11095;DHT22;5601;44.490;11.400;2023-01-26T04:18:45;2.90;99.90
11095;DHT22;5601;44.490;11.400;2023-01-26T04:21:30;3.00;99.90
11095;DHT22;5601;44.490;11.400;2023-01-26T04:23:58;2.90;99.90
11095;DHT22;5601;44.490;11.400;2023-01-26T04:26:26;3.00;99.90
11095;DHT22;5601;44.490;11.400;2023-01-26T04:28:59;3.00;99.90
11095;DHT22;5601;44.490;11.400;2023-01-26T04:31:26;3.10;99.90
11095;DHT22;5601;44.490;11.400;2023-01-26T04:33:52;3.00;99.90
11095;DHT22;5601;44.490;11.400;2023-01-26T04:36:19;3.10;99.90
11095;DHT22;5601;44.490;11.400;2023-01-26T04:38:47;3.10;99.90
11095;DHT22;5601;44.490;11.400;2023-01-26T04:41:15;3.10;99.90
11095;DHT22;5601;44.490;11.400;2023-01-26T04:43:41;3.10;99.90
11095;DHT22;5601;44.490;11.400;2023-01-26T04:46:08;3.10;99.90
11095;DHT22;5601;44.490;11.400;2023-01-26T04:48:35;3.10;99.90
11095;DHT22;5601;44.490;11.400;2023-01-26T04:51:05;3.10;99.90
11095;DHT22;5601;44.490;11.400;2023-01-26T04:53:32;3.10;99.90
11095;DHT22;5601;44.490;11.400;2023-01-26T04:56:01;3.10;99.90
11095;DHT22;5601;44.490;11.400;2023-01-26T04:58:28;3.10;99.90
11095;DHT22;5601;44.490;11.400;2023-01-26T05:00:55;3.10;99.90
11095;DHT22;5601;44.490;11.400;2023-01-26T05:03:22;3.10;99.90
11095;DHT22;5601;44.490;11.400;2023-01-26T05:05:50;3.10;99.90
11095;DHT22;5601;44.490;11.400;2023-01-26T05:08:17;3.10;99.90
11095;DHT22;5601;44.490;11.400;2023-01-26T05:10:44;3.10;99.90
11095;DHT22;5601;44.490;11.400;2023-01-26T05:13:13;3.00;99.90
11095;DHT22;5601;44.490;11.400;2023-01-26T05:15:40;3.10;99.90
11095;DHT22;5601;44.490;11.400;2023-01-26T05:18:07;3.00;99.90
11095;DHT22;5601;44.490;11.400;2023-01-26T05:20:33;3.00;99.90
11095;DHT22;5601;44.490;11.400;2023-01-26T05:23:00;3.00;99.90
11095;DHT22;5601;44.490;11.400;2023-01-26T05:25:27;3.00;99.90
11095;DHT22;5601;44.490;11.400;2023-01-26T05:27:54;3.00;99.90
11095;DHT22;5601;44.490;11.400;2023-01-26T05:30:22;3.00;99.90
11095;DHT22;5601;44.490;11.400;2023-01-26T05:32:49;2.90;99.90
11095;DHT22;5601;44.490;11.400;2023-01-26T05:35:16;3.00;99.90
11095;DHT22;5601;44.490;11.400;2023-01-26T05:37:43;3.00;99.90
11095;DHT22;5601;44.490;11.400;2023-01-26T05:40:10;3.00;99.90
11095;DHT22;5601;44.490;11.400;2023-01-26T05:42:37;3.00;99.90
11095;DHT22;5601;44.490;11.400;2023-01-26T05:45:04;3.00;99.90
11095;DHT22;5601;44.490;11.400;2023-01-26T05:47:33;3.10;99.90
11095;DHT22;5601;44.490;11.400;2023-01-26T05:50:00;3.10;99.90
11095;DHT22;5601;44.490;11.400;2023-01-26T05:52:26;3.10;99.90
11095;DHT22;5601;44.490;11.400;2023-01-26T05:54:53;3.10;99.90
11095;DHT22;5601;44.490;11.400;2023-01-26T05:57:20;3.00;99.90
11095;DHT22;5601;44.490;11.400;2023-01-26T05:59:47;3.00;99.90
11095;DHT22;5601;44.490;11.400;2023-01-26T06:02:14;3.00;99.90
11095;DHT22;5601;44.490;11.400;2023-01-26T06:04:42;3.00;99.90
11095;DHT22;5601;44.490;11.400;2023-01-26T06:07:09;3.00;99.90
11095;DHT22;5601;44.490;11.400;2023-01-26T06:09:37;3.00;99.90
11095;DHT22;5601;44.490;11.400;2023-01-26T06:12:05;3.00;99.90
11095;DHT22;5601;44.490;11.400;2023-01-26T06:14:31;3.00;99.90
11095;DHT22;5601;44.490;11.400;2023-01-26T06:16:58;3.00;99.90
11095;DHT22;5601;44.490;11.400;2023-01-26T06:19:25;2.90;99.90
11095;DHT22;5601;44.490;11.400;2023-01-26T06:21:53;2.90;99.90
11095;DHT22;5601;44.490;11.400;2023-01-26T06:24:20;2.80;99.90
11095;DHT22;5601;44.490;11.400;2023-01-26T06:26:48;2.80;99.90
11095;DHT22;5601;44.490;11.400;2023-01-26T06:29:15;2.80;99.90
11095;DHT22;5601;44.490;11.400;2023-01-26T06:31:42;2.80;99.90
11095;DHT22;5601;44.490;11.400;2023-01-26T06:34:08;2.70;99.90
11095;DHT22;5601;44.490;11.400;2023-01-26T06:36:35;2.70;99.90
11095;DHT22;5601;44.490;11.400;2023-01-26T06:39:04;2.70;99.90
11095;DHT22;5601;44.490;11.400;2023-01-26T06:41:31;2.70;99.90
11095;DHT22;5601;44.490;11.400;2023-01-26T06:43:58;2.60;99.90
11095;DHT22;5601;44.490;11.400;2023-01-26T06:46:25;2.60;99.90
11095;DHT22;5601;44.490;11.400;2023-01-26T06:48:52;2.60;99.90
11095;DHT22;5601;44.490;11.400;2023-01-26T06:54:00;2.60;99.90
11095;DHT22;5601;44.490;11.400;2023-01-26T06:56:28;2.50;99.90
11095;DHT22;5601;44.490;11.400;2023-01-26T06:58:55;2.60;99.90
11095;DHT22;5601;44.490;11.400;2023-01-26T07:01:22;2.60;99.90
11095;DHT22;5601;44.490;11.400;2023-01-26T07:03:50;2.60;99.90
11095;DHT22;5601;44.490;11.400;2023-01-26T07:06:17;2.60;99.90
11095;DHT22;5601;44.490;11.400;2023-01-26T07:08:44;2.70;99.90
11095;DHT22;5601;44.490;11.400;2023-01-26T07:11:11;2.70;99.90
11095;DHT22;5601;44.490;11.400;2023-01-26T07:13:40;2.70;99.90
11095;DHT22;5601;44.490;11.400;2023-01-26T07:16:08;2.80;99.90
11095;DHT22;5601;44.490;11.400;2023-01-26T07:18:35;2.90;99.90
11095;DHT22;5601;44.490;11.400;2023-01-26T07:21:02;3.10;99.90
11095;DHT22;5601;44.490;11.400;2023-01-26T07:23:30;3.20;99.90
11095;DHT22;5601;44.490;11.400;2023-01-26T15:22:50;6.70;99.90
11095;DHT22;5601;44.490;11.400;2023-01-26T15:25:19;6.70;99.90
11095;DHT22;5601;44.490;11.400;2023-01-26T15:27:48;6.60;99.90
11095;DHT22;5601;44.490;11.400;2023-01-26T15:30:16;6.60;99.90
11095;DHT22;5601;44.490;11.400;2023-01-26T15:32:43;6.50;99.90
11095;DHT22;5601;44.490;11.400;2023-01-26T15:35:17;6.40;99.90
11095;DHT22;5601;44.490;11.400;2023-01-26T15:37:44;6.40;99.90
11095;DHT22;5601;44.490;11.400;2023-01-26T15:40:12;6.40;99.90
11095;DHT22;5601;44.490;11.400;2023-01-26T15:42:39;6.40;99.90
11095;DHT22;5601;44.490;11.400;2023-01-26T15:45:10;6.30;99.90
11095;DHT22;5601;44.490;11.400;2023-01-26T15:47:41;6.30;99.90
11095;DHT22;5601;44.490;11.400;2023-01-26T15:50:08;6.20;99.90
11095;DHT22;5601;44.490;11.400;2023-01-26T15:52:35;6.20;99.90
11095;DHT22;5601;44.490;11.400;2023-01-26T15:55:06;6.10;99.90
11095;DHT22;5601;44.490;11.400;2023-01-26T15:57:41;6.10;99.90
11095;DHT22;5601;44.490;11.400;2023-01-26T16:00:10;6.00;99.90
11095;DHT22;5601;44.490;11.400;2023-01-26T16:02:37;5.90;99.90
11095;DHT22;5601;44.490;11.400;2023-01-26T16:05:04;5.80;99.90
11095;DHT22;5601;44.490;11.400;2023-01-26T16:07:31;5.70;99.90
11095;DHT22;5601;44.490;11.400;2023-01-26T16:09:58;5.60;99.90
11095;DHT22;5601;44.490;11.400;2023-01-26T16:12:25;5.60;99.90
11095;DHT22;5601;44.490;11.400;2023-01-26T16:14:53;5.60;99.90
11095;DHT22;5601;44.490;11.400;2023-01-26T16:17:20;5.60;99.90
11095;DHT22;5601;44.490;11.400;2023-01-26T16:19:47;5.60;99.90
11095;DHT22;5601;44.490;11.400;2023-01-26T16:22:13;5.60;99.90
11095;DHT22;5601;44.490;11.400;2023-01-26T16:24:40;5.60;99.90
11095;DHT22;5601;44.490;11.400;2023-01-26T16:27:07;5.50;99.90
11095;DHT22;5601;44.490;11.400;2023-01-26T16:29:34;5.50;99.90
11095;DHT22;5601;44.490;11.400;2023-01-26T16:32:04;5.40;99.90
11095;DHT22;5601;44.490;11.400;2023-01-26T16:34:34;5.40;99.90
11095;DHT22;5601;44.490;11.400;2023-01-26T16:37:01;5.30;99.90
11095;DHT22;5601;44.490;11.400;2023-01-26T16:39:28;5.20;99.90
11095;DHT22;5601;44.490;11.400;2023-01-26T16:41:54;5.20;99.90
11095;DHT22;5601;44.490;11.400;2023-01-26T16:44:21;5.10;99.90
11095;DHT22;5601;44.490;11.400;2023-01-26T16:46:48;5.00;99.90
11095;DHT22;5601;44.490;11.400;2023-01-26T16:49:17;5.00;99.90
11095;DHT22;5601;44.490;11.400;2023-01-26T16:51:44;4.90;99.90
11095;DHT22;5601;44.490;11.400;2023-01-26T16:54:10;4.90;99.90
11095;DHT22;5601;44.490;11.400;2023-01-26T16:56:37;4.90;99.90
11095;DHT22;5601;44.490;11.400;2023-01-26T16:59:04;4.90;99.90
11095;DHT22;5601;44.490;11.400;2023-01-26T17:01:32;4.90;99.90
11095;DHT22;5601;44.490;11.400;2023-01-26T17:04:00;4.90;99.90
11095;DHT22;5601;44.490;11.400;2023-01-26T17:06:29;5.00;99.90
11095;DHT22;5601;44.490;11.400;2023-01-26T17:08:55;5.10;99.90
11095;DHT22;5601;44.490;11.400;2023-01-26T17:11:23;5.10;99.90
11095;DHT22;5601;44.490;11.400;2023-01-26T17:13:50;5.00;99.90
11095;DHT22;5601;44.490;11.400;2023-01-26T17:16:19;5.00;99.90
11095;DHT22;5601;44.490;11.400;2023-01-26T17:18:46;4.90;99.90
11095;DHT22;5601;44.490;11.400;2023-01-26T17:21:14;4.90;99.90
11095;DHT22;5601;44.490;11.400;2023-01-26T17:23:43;4.80;99.90
11095;DHT22;5601;44.490;11.400;2023-01-26T17:26:10;4.80;99.90
11095;DHT22;5601;44.490;11.400;2023-01-26T17:28:37;4.70;99.90
11095;DHT22;5601;44.490;11.400;2023-01-26T17:31:07;4.60;99.90
11095;DHT22;5601;44.490;11.400;2023-01-26T17:33:35;4.60;99.90
11095;DHT22;5601;44.490;11.400;2023-01-26T17:36:02;4.50;99.90
11095;DHT22;5601;44.490;11.400;2023-01-26T17:38:30;4.50;99.90
11095;DHT22;5601;44.490;11.400;2023-01-26T17:40:58;4.40;99.90
11095;DHT22;5601;44.490;11.400;2023-01-26T17:43:25;4.40;99.90
11095;DHT22;5601;44.490;11.400;2023-01-26T17:45:59;4.40;99.90
11095;DHT22;5601;44.490;11.400;2023-01-26T17:48:27;4.30;99.90
11095;DHT22;5601;44.490;11.400;2023-01-26T17:50:53;4.20;99.90
11095;DHT22;5601;44.490;11.400;2023-01-26T17:53:20;4.20;99.90
11095;DHT22;5601;44.490;11.400;2023-01-26T17:55:48;4.20;99.90
11095;DHT22;5601;44.490;11.400;2023-01-26T17:58:16;4.20;99.90
11095;DHT22;5601;44.490;11.400;2023-01-26T18:00:43;4.10;99.90
11095;DHT22;5601;44.490;11.400;2023-01-26T18:03:10;4.10;99.90
11095;DHT22;5601;44.490;11.400;2023-01-26T18:05:37;4.00;99.90
11095;DHT22;5601;44.490;11.400;2023-01-26T18:08:04;4.00;99.90
11095;DHT22;5601;44.490;11.400;2023-01-26T18:10:30;3.90;99.90
11095;DHT22;5601;44.490;11.400;2023-01-26T18:12:57;3.90;99.90
11095;DHT22;5601;44.490;11.400;2023-01-26T18:15:25;3.80;99.90
11095;DHT22;5601;44.490;11.400;2023-01-26T18:17:52;3.80;99.90
11095;DHT22;5601;44.490;11.400;2023-01-26T18:20:19;3.80;99.90
11095;DHT22;5601;44.490;11.400;2023-01-26T18:22:47;3.80;99.90
11095;DHT22;5601;44.490;11.400;2023-01-26T18:25:14;3.80;99.90
11095;DHT22;5601;44.490;11.400;2023-01-26T18:27:42;3.70;99.90
11095;DHT22;5601;44.490;11.400;2023-01-26T18:30:09;3.70;99.90
11095;DHT22;5601;44.490;11.400;2023-01-26T18:32:37;3.60;99.90
11095;DHT22;5601;44.490;11.400;2023-01-26T18:35:05;3.60;99.90
11095;DHT22;5601;44.490;11.400;2023-01-26T18:37:32;3.60;99.90
11095;DHT22;5601;44.490;11.400;2023-01-26T18:39:59;3.60;99.90
11095;DHT22;5601;44.490;11.400;2023-01-26T18:42:27;3.70;99.90
11095;DHT22;5601;44.490;11.400;2023-01-26T18:44:54;3.60;99.90
11095;DHT22;5601;44.490;11.400;2023-01-26T18:47:25;3.60;99.90
11095;DHT22;5601;44.490;11.400;2023-01-26T18:49:53;3.60;99.90
11095;DHT22;5601;44.490;11.400;2023-01-26T18:52:20;3.60;99.90
11095;DHT22;5601;44.490;11.400;2023-01-26T18:54:47;3.50;99.90
11095;DHT22;5601;44.490;11.400;2023-01-26T18:57:14;3.60;99.90
11095;DHT22;5601;44.490;11.400;2023-01-26T18:59:41;3.60;99.90
11095;DHT22;5601;44.490;11.400;2023-01-26T19:02:09;3.50;99.90
11095;DHT22;5601;44.490;11.400;2023-01-26T19:04:37;3.50;99.90
11095;DHT22;5601;44.490;11.400;2023-01-26T19:07:08;3.50;99.90
11095;DHT22;5601;44.490;11.400;2023-01-26T19:09:35;3.50;99.90
11095;DHT22;5601;44.490;11.400;2023-01-26T19:12:02;3.50;99.90
11095;DHT22;5601;44.490;11.400;2023-01-26T19:14:28;3.60;99.90
11095;DHT22;5601;44.490;11.400;2023-01-26T19:16:56;3.60;99.90
11095;DHT22;5601;44.490;11.400;2023-01-26T19:19:23;3.70;99.90
11095;DHT22;5601;44.490;11.400;2023-01-26T19:21:50;3.80;99.90
11095;DHT22;5601;44.490;11.400;2023-01-26T19:24:18;3.90;99.90
11095;DHT22;5601;44.490;11.400;2023-01-26T19:26:45;3.90;99.90
11095;DHT22;5601;44.490;11.400;2023-01-26T19:29:12;4.00;99.90
11095;DHT22;5601;44.490;11.400;2023-01-26T19:31:39;4.00;99.90
11095;DHT22;5601;44.490;11.400;2023-01-26T19:34:06;4.00;99.90
11095;DHT22;5601;44.490;11.400;2023-01-26T19:36:34;4.10;99.90
11095;DHT22;5601;44.490;11.400;2023-01-26T19:39:01;4.10;99.90
11095;DHT22;5601;44.490;11.400;2023-01-26T19:41:29;4.10;99.90
11095;DHT22;5601;44.490;11.400;2023-01-26T19:43:56;4.10;99.90
11095;DHT22;5601;44.490;11.400;2023-01-26T19:46:23;4.10;99.90
11095;DHT22;5601;44.490;11.400;2023-01-26T19:48:50;4.10;99.90
11095;DHT22;5601;44.490;11.400;2023-01-26T19:51:17;4.10;99.90
11095;DHT22;5601;44.490;11.400;2023-01-26T19:53:44;4.00;99.90
11095;DHT22;5601;44.490;11.400;2023-01-26T19:56:14;4.00;99.90
11095;DHT22;5601;44.490;11.400;2023-01-26T19:58:42;4.00;99.90
11095;DHT22;5601;44.490;11.400;2023-01-26T20:01:10;4.00;99.90
11095;DHT22;5601;44.490;11.400;2023-01-26T20:03:37;4.00;99.90
11095;DHT22;5601;44.490;11.400;2023-01-26T20:06:05;4.00;99.90
11095;DHT22;5601;44.490;11.400;2023-01-26T20:08:32;4.00;99.90
11095;DHT22;5601;44.490;11.400;2023-01-26T20:11:02;4.00;99.90
11095;DHT22;5601;44.490;11.400;2023-01-26T20:13:29;4.00;99.90
11095;DHT22;5601;44.490;11.400;2023-01-26T20:15:57;4.00;99.90
11095;DHT22;5601;44.490;11.400;2023-01-26T20:18:24;3.90;99.90
11095;DHT22;5601;44.490;11.400;2023-01-26T20:20:52;3.90;99.90
11095;DHT22;5601;44.490;11.400;2023-01-26T20:23:19;3.90;99.90
11095;DHT22;5601;44.490;11.400;2023-01-26T20:25:46;3.90;99.90
11095;DHT22;5601;44.490;11.400;2023-01-26T20:28:13;3.90;99.90
11095;DHT22;5601;44.490;11.400;2023-01-26T20:30:40;3.90;99.90
11095;DHT22;5601;44.490;11.400;2023-01-26T20:33:10;3.90;99.90
11095;DHT22;5601;44.490;11.400;2023-01-26T20:35:37;3.80;99.90
11095;DHT22;5601;44.490;11.400;2023-01-26T20:38:04;3.80;99.90
11095;DHT22;5601;44.490;11.400;2023-01-26T20:40:31;3.80;99.90
11095;DHT22;5601;44.490;11.400;2023-01-26T20:42:58;3.80;99.90
11095;DHT22;5601;44.490;11.400;2023-01-26T20:45:25;3.70;99.90
11095;DHT22;5601;44.490;11.400;2023-01-26T20:47:52;3.70;99.90
11095;DHT22;5601;44.490;11.400;2023-01-26T20:50:20;3.60;99.90
11095;DHT22;5601;44.490;11.400;2023-01-26T20:52:46;3.60;99.90
11095;DHT22;5601;44.490;11.400;2023-01-26T20:55:13;3.60;99.90
11095;DHT22;5601;44.490;11.400;2023-01-26T20:57:40;3.60;99.90
11095;DHT22;5601;44.490;11.400;2023-01-26T21:00:07;3.60;99.90
11095;DHT22;5601;44.490;11.400;2023-01-26T21:02:34;3.60;99.90
11095;DHT22;5601;44.490;11.400;2023-01-26T21:05:01;3.50;99.90
11095;DHT22;5601;44.490;11.400;2023-01-26T21:07:31;3.50;99.90
11095;DHT22;5601;44.490;11.400;2023-01-26T21:09:58;3.50;99.90
11095;DHT22;5601;44.490;11.400;2023-01-26T21:12:24;3.50;99.90
11095;DHT22;5601;44.490;11.400;2023-01-26T21:14:51;3.50;99.90
11095;DHT22;5601;44.490;11.400;2023-01-26T21:17:18;3.40;99.90
11095;DHT22;5601;44.490;11.400;2023-01-26T21:19:47;3.40;99.90
11095;DHT22;5601;44.490;11.400;2023-01-26T21:22:14;3.40;99.90
11095;DHT22;5601;44.490;11.400;2023-01-26T21:24:42;3.30;99.90
11095;DHT22;5601;44.490;11.400;2023-01-26T21:27:09;3.30;99.90
11095;DHT22;5601;44.490;11.400;2023-01-26T21:29:35;3.20;99.90
11095;DHT22;5601;44.490;11.400;2023-01-26T21:32:04;3.10;99.90
11095;DHT22;5601;44.490;11.400;2023-01-26T21:34:31;3.10;99.90
11095;DHT22;5601;44.490;11.400;2023-01-26T21:36:58;3.00;99.90
11095;DHT22;5601;44.490;11.400;2023-01-26T21:39:25;2.90;99.90
11095;DHT22;5601;44.490;11.400;2023-01-26T21:41:53;2.90;99.90
11095;DHT22;5601;44.490;11.400;2023-01-26T21:44:24;2.80;99.90
11095;DHT22;5601;44.490;11.400;2023-01-26T21:46:52;2.80;99.90
11095;DHT22;5601;44.490;11.400;2023-01-26T21:49:19;2.80;99.90
11095;DHT22;5601;44.490;11.400;2023-01-26T21:51:46;2.80;99.90
11095;DHT22;5601;44.490;11.400;2023-01-26T21:54:30;2.70;99.90
11095;DHT22;5601;44.490;11.400;2023-01-26T21:56:59;2.80;99.90
11095;DHT22;5601;44.490;11.400;2023-01-26T21:59:26;2.90;99.90
11095;DHT22;5601;44.490;11.400;2023-01-26T22:01:53;2.90;99.90
11095;DHT22;5601;44.490;11.400;2023-01-26T22:04:21;2.90;99.90
11095;DHT22;5601;44.490;11.400;2023-01-26T22:06:48;2.90;99.90
11095;DHT22;5601;44.490;11.400;2023-01-26T22:09:16;3.00;99.90
11095;DHT22;5601;44.490;11.400;2023-01-26T22:11:43;3.00;99.90
11095;DHT22;5601;44.490;11.400;2023-01-26T22:14:13;3.00;99.90
11095;DHT22;5601;44.490;11.400;2023-01-26T22:16:40;3.10;99.90
11095;DHT22;5601;44.490;11.400;2023-01-26T22:19:07;3.10;99.90
11095;DHT22;5601;44.490;11.400;2023-01-26T22:21:34;3.00;99.90
11095;DHT22;5601;44.490;11.400;2023-01-26T22:24:00;3.10;99.90
11095;DHT22;5601;44.490;11.400;2023-01-26T22:26:27;3.00;99.90
11095;DHT22;5601;44.490;11.400;2023-01-26T22:28:55;3.00;99.90
11095;DHT22;5601;44.490;11.400;2023-01-26T22:31:24;3.00;99.90
11095;DHT22;5601;44.490;11.400;2023-01-26T22:33:51;3.00;99.90
11095;DHT22;5601;44.490;11.400;2023-01-26T22:36:18;3.00;99.90
11095;DHT22;5601;44.490;11.400;2023-01-26T22:38:45;3.00;99.90
11095;DHT22;5601;44.490;11.400;2023-01-26T22:41:13;3.00;99.90
11095;DHT22;5601;44.490;11.400;2023-01-26T22:43:40;3.00;99.90
11095;DHT22;5601;44.490;11.400;2023-01-26T22:46:08;3.10;99.90
11095;DHT22;5601;44.490;11.400;2023-01-26T22:48:36;3.00;99.90
11095;DHT22;5601;44.490;11.400;2023-01-26T22:51:06;3.00;99.90
11095;DHT22;5601;44.490;11.400;2023-01-26T22:53:33;2.90;99.90
11095;DHT22;5601;44.490;11.400;2023-01-26T22:56:00;2.90;99.90
11095;DHT22;5601;44.490;11.400;2023-01-26T22:58:27;2.80;99.90
11095;DHT22;5601;44.490;11.400;2023-01-26T23:00:56;2.70;99.90
11095;DHT22;5601;44.490;11.400;2023-01-26T23:03:28;2.70;99.90
11095;DHT22;5601;44.490;11.400;2023-01-26T23:05:58;2.60;99.90
11095;DHT22;5601;44.490;11.400;2023-01-26T23:08:25;2.70;99.90
11095;DHT22;5601;44.490;11.400;2023-01-26T23:11:00;2.70;99.90
11095;DHT22;5601;44.490;11.400;2023-01-26T23:13:27;2.70;99.90
11095;DHT22;5601;44.490;11.400;2023-01-26T23:15:53;2.80;99.90
11095;DHT22;5601;44.490;11.400;2023-01-26T23:18:20;2.90;99.90
11095;DHT22;5601;44.490;11.400;2023-01-26T23:20:47;2.90;99.90
11095;DHT22;5601;44.490;11.400;2023-01-26T23:23:15;2.90;99.90
11095;DHT22;5601;44.490;11.400;2023-01-26T23:25:43;3.00;99.90
11095;DHT22;5601;44.490;11.400;2023-01-26T23:28:16;3.00;99.90
11095;DHT22;5601;44.490;11.400;2023-01-26T23:30:43;3.00;99.90
11095;DHT22;5601;44.490;11.400;2023-01-26T23:33:09;3.00;99.90
11095;DHT22;5601;44.490;11.400;2023-01-26T23:35:36;3.00;99.90
11095;DHT22;5601;44.490;11.400;2023-01-26T23:38:03;3.00;99.90
11095;DHT22;5601;44.490;11.400;2023-01-26T23:40:32;3.00;99.90
11095;DHT22;5601;44.490;11.400;2023-01-26T23:42:59;3.10;99.90
11095;DHT22;5601;44.490;11.400;2023-01-26T23:45:25;3.10;99.90
11095;DHT22;5601;44.490;11.400;2023-01-26T23:47:52;3.10;99.90
11095;DHT22;5601;44.490;11.400;2023-01-26T23:50:19;3.10;99.90